createdAt,value
2022-08-10T00:01:54.558Z,41.88
2022-08-10T00:04:25.265Z,41.94
2022-08-10T00:06:55.608Z,42.06
2022-08-10T00:09:26.048Z,42.15
2022-08-10T00:11:55.388Z,42.22
2022-08-10T00:14:24.470Z,42.16
2022-08-10T00:16:53.765Z,42.23
2022-08-10T00:19:23.137Z,42.33
2022-08-10T00:21:52.221Z,42.34
2022-08-10T00:24:21.553Z,42.36
2022-08-10T00:27:57.817Z,42.34
2022-08-10T00:29:40.687Z,42.40
2022-08-10T00:32:10.452Z,42.36
2022-08-10T00:34:39.510Z,42.33
2022-08-10T00:37:09.182Z,42.36
2022-08-10T00:39:39.420Z,42.55
2022-08-10T00:42:10.468Z,42.56
2022-08-10T00:44:41.664Z,42.68
2022-08-10T00:47:36.452Z,42.82
2022-08-10T00:50:02.267Z,42.93
2022-08-10T00:52:33.769Z,42.94
2022-08-10T00:55:04.541Z,42.99
2022-08-10T01:00:42.608Z,43.00
2022-08-10T01:03:12.291Z,43.18
2022-08-10T01:05:52.007Z,43.21
2022-08-10T01:08:32.135Z,43.28
2022-08-10T01:12:37.657Z,43.32
2022-08-10T01:14:07.510Z,43.43
2022-08-10T01:16:53.263Z,43.57
2022-08-10T01:19:41.168Z,43.59
2022-08-10T01:22:29.168Z,43.73
2022-08-10T01:26:10.551Z,43.68
2022-08-10T01:28:42.303Z,43.85
2022-08-10T01:31:16.435Z,44.01
2022-08-10T01:33:58.921Z,44.01
2022-08-10T01:36:35.365Z,44.18
2022-08-10T01:39:06.726Z,44.25
2022-08-10T01:41:46.628Z,44.35
2022-08-10T01:44:20.352Z,44.46
2022-08-10T01:46:56.674Z,44.56
2022-08-10T01:49:28.553Z,44.76
2022-08-10T01:52:01.143Z,44.94
2022-08-10T01:54:32.236Z,45.18
2022-08-10T01:57:04.105Z,45.32
2022-08-10T01:59:36.506Z,45.46
2022-08-10T02:02:15.186Z,45.64
2022-08-10T02:04:50.581Z,45.86
2022-08-10T02:07:31.675Z,46.01
2022-08-10T02:10:09.702Z,46.21
2022-08-10T02:12:43.350Z,46.56
2022-08-10T02:15:16.767Z,46.65
2022-08-10T02:17:57.454Z,46.79
2022-08-10T02:20:34.621Z,47.03
2022-08-10T02:23:08.610Z,47.53
2022-08-10T02:25:43.866Z,47.49
2022-08-10T02:28:29.748Z,47.84
2022-08-10T02:31:06.410Z,47.92
2022-08-10T02:33:38.136Z,47.96
2022-08-10T02:36:11.798Z,48.15
2022-08-10T02:38:59.117Z,48.25
2022-08-10T02:45:12.566Z,48.47
2022-08-10T02:45:22.065Z,48.63
2022-08-10T02:47:50.884Z,48.75
2022-08-10T02:50:27.392Z,49.02
2022-08-10T02:53:01.734Z,48.99
2022-08-10T02:55:35.816Z,49.25
2022-08-10T02:58:13.877Z,49.30
2022-08-10T03:00:53.261Z,49.41
2022-08-10T03:03:25.524Z,49.53
2022-08-10T03:06:02.347Z,49.41
2022-08-10T03:08:41.065Z,49.62
2022-08-10T03:11:18.932Z,49.66
2022-08-10T03:14:10.973Z,49.66
2022-08-10T03:16:41.746Z,49.80
2022-08-10T03:20:34.807Z,50.03
2022-08-10T03:22:04.944Z,50.22
2022-08-10T03:24:35.876Z,50.30
2022-08-10T03:27:06.670Z,50.29
2022-08-10T03:30:28.194Z,50.27
2022-08-10T03:32:26.793Z,50.28
2022-08-10T03:34:57.294Z,50.27
2022-08-10T03:37:28.529Z,50.34
2022-08-10T03:39:58.066Z,50.38
2022-08-10T03:42:28.555Z,50.35
2022-08-10T03:45:02.307Z,50.27
2022-08-10T03:47:34.009Z,50.17
2022-08-10T03:50:27.813Z,50.20
2022-08-10T03:52:54.731Z,50.26
2022-08-10T03:56:29.461Z,50.53
2022-08-10T03:58:14.797Z,50.59
2022-08-10T04:00:50.726Z,50.52
2022-08-10T04:03:20.250Z,50.51
2022-08-10T04:05:49.460Z,50.55
2022-08-10T04:08:25.715Z,50.58
2022-08-10T04:10:55.410Z,50.81
2022-08-10T04:13:24.670Z,50.86
2022-08-10T04:16:00.983Z,50.47
2022-08-10T04:18:43.118Z,50.69
2022-08-10T04:21:16.109Z,50.45
2022-08-10T04:23:53.236Z,50.24
2022-08-10T04:26:23.061Z,49.96
2022-08-10T04:28:52.626Z,49.83
2022-08-10T04:31:27.290Z,49.75
2022-08-10T04:33:59.510Z,49.56
2022-08-10T04:36:40.584Z,49.34
2022-08-10T04:39:10.833Z,49.14
2022-08-10T04:41:46.057Z,49.05
2022-08-10T04:44:16.794Z,48.97
2022-08-10T04:46:58.361Z,48.91
2022-08-10T04:49:55.276Z,49.03
2022-08-10T04:52:18.894Z,48.87
2022-08-10T04:54:48.489Z,48.68
2022-08-10T04:57:20.313Z,48.58
2022-08-10T04:59:58.066Z,48.56
2022-08-10T05:02:32.305Z,48.63
2022-08-10T05:05:02.376Z,48.51
2022-08-10T05:07:33.124Z,48.48
2022-08-10T05:10:23.505Z,48.25
2022-08-10T05:12:54.021Z,48.34
2022-08-10T05:15:28.347Z,48.35
2022-08-10T05:18:08.401Z,48.36
2022-08-10T05:20:41.011Z,48.47
2022-08-10T05:23:10.686Z,48.36
2022-08-10T05:25:40.191Z,48.39
2022-08-10T05:28:10.429Z,48.46
2022-08-10T05:30:39.970Z,48.46
2022-08-10T05:33:09.646Z,48.29
2022-08-10T05:35:56.602Z,48.14
2022-08-10T05:38:28.558Z,48.01
2022-08-10T05:40:58.601Z,48.09
2022-08-10T05:43:28.335Z,48.15
2022-08-10T05:46:19.451Z,48.13
2022-08-10T05:48:59.549Z,48.41
2022-08-10T05:51:30.911Z,48.55
2022-08-10T05:54:06.175Z,48.60
2022-08-10T05:56:55.903Z,48.49
2022-08-10T06:00:10.673Z,48.40
2022-08-10T06:02:33.116Z,48.35
2022-08-10T06:05:09.297Z,48.24
2022-08-10T06:07:46.996Z,48.17
2022-08-10T06:10:31.910Z,48.10
2022-08-10T06:13:29.987Z,47.86
2022-08-10T06:16:08.993Z,47.80
2022-08-10T06:18:38.273Z,47.75
2022-08-10T06:21:09.058Z,47.65
2022-08-10T06:23:39.738Z,47.79
2022-08-10T06:26:14.718Z,47.75
2022-08-10T06:29:03.288Z,47.45
2022-08-10T06:31:48.289Z,47.44
2022-08-10T06:34:24.601Z,47.34
2022-08-10T06:36:55.508Z,47.27
2022-08-10T06:39:34.900Z,47.23
2022-08-10T06:42:16.012Z,47.32
2022-08-10T06:44:54.623Z,47.31
2022-08-10T06:47:29.169Z,47.28
2022-08-10T06:50:08.535Z,47.16
2022-08-10T06:52:40.663Z,47.01
2022-08-10T06:55:16.933Z,46.87
2022-08-10T06:57:59.891Z,46.77
2022-08-10T07:00:37.213Z,46.70
2022-08-10T07:03:13.869Z,46.87
2022-08-10T07:05:51.281Z,46.90
2022-08-10T07:08:23.038Z,46.59
2022-08-10T07:14:17.434Z,46.29
2022-08-10T07:16:42.737Z,46.12
2022-08-10T07:19:13.870Z,46.11
2022-08-10T07:21:47.859Z,46.00
2022-08-10T07:24:20.725Z,45.83
2022-08-10T07:26:54.710Z,45.62
2022-08-10T07:29:53.319Z,45.53
2022-08-10T07:32:22.459Z,45.33
2022-08-10T07:34:55.959Z,45.01
2022-08-10T07:37:29.150Z,44.83
2022-08-10T07:40:04.799Z,44.68
2022-08-10T07:42:36.460Z,44.56
2022-08-10T07:45:07.528Z,44.21
2022-08-10T07:47:52.643Z,44.03
2022-08-10T07:50:25.249Z,43.72
2022-08-10T07:52:58.217Z,43.40
2022-08-10T07:56:03.965Z,43.58
2022-08-10T07:58:19.566Z,43.53
2022-08-10T08:00:53.488Z,43.58
2022-08-10T08:03:25.010Z,43.65
2022-08-10T08:06:02.581Z,43.55
2022-08-10T08:08:38.207Z,43.38
2022-08-10T08:11:08.296Z,43.22
2022-08-10T08:13:39.581Z,43.15
2022-08-10T08:16:21.409Z,43.09
2022-08-10T08:19:23.616Z,43.26
2022-08-10T08:24:06.052Z,43.13
2022-08-10T08:24:38.124Z,43.37
2022-08-10T08:27:10.745Z,43.23
2022-08-10T08:29:44.981Z,43.32
2022-08-10T08:32:16.412Z,42.99
2022-08-10T08:34:47.067Z,42.81
2022-08-10T08:38:33.610Z,42.70
2022-08-10T08:40:16.080Z,42.82
2022-08-10T08:43:22.250Z,42.84
2022-08-10T08:46:38.239Z,42.74
2022-08-10T08:49:41.482Z,42.59
2022-08-10T08:52:48.810Z,42.51
2022-08-10T08:55:50.236Z,42.46
2022-08-10T08:58:58.611Z,42.44
2022-08-10T09:02:00.568Z,42.25
2022-08-10T09:05:17.278Z,42.27
2022-08-10T09:08:05.626Z,42.04
2022-08-10T09:10:50.410Z,42.02
2022-08-10T09:13:28.857Z,42.09
2022-08-10T09:16:14.530Z,41.77
2022-08-10T09:18:51.784Z,41.73
2022-08-10T09:21:30.879Z,41.81
2022-08-10T09:24:06.339Z,41.79
2022-08-10T09:26:47.534Z,41.59
2022-08-10T09:29:24.421Z,41.57
2022-08-10T09:36:15.447Z,41.62
2022-08-10T09:36:19.797Z,41.51
2022-08-10T09:38:06.362Z,41.13
2022-08-10T09:41:00.805Z,40.97
2022-08-10T09:43:49.483Z,40.70
2022-08-10T09:46:40.081Z,40.70
2022-08-10T09:49:22.372Z,40.43
2022-08-10T09:52:09.387Z,40.24
2022-08-10T09:54:56.212Z,40.26
2022-08-10T09:57:43.378Z,39.99
2022-08-10T10:00:19.577Z,39.86
2022-08-10T10:03:03.596Z,39.36
2022-08-10T10:05:53.359Z,39.28
2022-08-10T10:08:32.987Z,39.01
2022-08-10T10:11:32.385Z,39.17
2022-08-10T10:14:17.822Z,39.09
2022-08-10T10:17:03.124Z,38.85
2022-08-10T10:19:50.519Z,38.78
2022-08-10T10:22:34.969Z,38.85
2022-08-10T10:25:24.950Z,38.66
2022-08-10T10:31:45.643Z,38.37
2022-08-10T10:34:25.702Z,38.15
2022-08-10T10:36:56.944Z,38.13
2022-08-10T10:39:27.492Z,38.33
2022-08-10T10:42:14.600Z,38.10
2022-08-10T10:45:06.304Z,38.06
2022-08-10T10:47:55.768Z,37.97
2022-08-10T10:50:35.174Z,37.79
2022-08-10T10:53:13.794Z,37.57
2022-08-10T10:56:14.598Z,37.37
2022-08-10T10:58:48.874Z,37.44
2022-08-10T11:01:36.462Z,37.33
2022-08-10T11:04:23.094Z,37.35
2022-08-10T11:07:03.494Z,37.25
2022-08-10T11:10:04.917Z,37.09
2022-08-10T11:12:43.552Z,37.32
2022-08-10T11:15:22.221Z,37.06
2022-08-10T11:18:04.593Z,36.89
2022-08-10T11:20:43.986Z,37.12
2022-08-10T11:23:23.470Z,37.03
2022-08-10T11:26:05.968Z,37.25
2022-08-10T11:28:45.302Z,37.02
2022-08-10T11:31:27.595Z,37.14
2022-08-10T11:34:47.136Z,37.06
2022-08-10T11:37:09.668Z,37.11
2022-08-10T11:39:48.595Z,36.86
2022-08-10T11:42:35.666Z,37.06
2022-08-10T11:45:13.663Z,36.86
2022-08-10T11:47:51.918Z,36.96
2022-08-10T11:50:25.711Z,37.08
2022-08-10T11:53:10.308Z,36.91
2022-08-10T11:55:40.265Z,36.79
2022-08-10T11:58:34.093Z,36.73
2022-08-10T12:01:09.173Z,36.91
2022-08-10T12:03:41.710Z,36.86
2022-08-10T12:06:53.669Z,36.85
2022-08-10T12:10:11.000Z,37.01
2022-08-10T12:12:11.099Z,37.15
2022-08-10T12:14:48.504Z,37.27
2022-08-10T12:17:24.228Z,37.19
2022-08-10T12:20:04.133Z,37.30
2022-08-10T12:22:55.102Z,37.33
2022-08-10T12:25:56.523Z,37.38
2022-08-10T12:28:49.277Z,37.46
2022-08-10T12:31:27.193Z,37.23
2022-08-10T12:34:14.605Z,37.48
2022-08-10T12:36:48.196Z,37.57
2022-08-10T12:39:25.358Z,37.60
2022-08-10T12:42:06.108Z,37.55
2022-08-10T12:44:55.014Z,37.36
2022-08-10T12:47:41.238Z,37.61
2022-08-10T12:50:30.877Z,37.68
2022-08-10T12:53:08.047Z,37.62
2022-08-10T12:55:40.536Z,37.80
2022-08-10T12:58:59.691Z,37.62
2022-08-10T13:01:16.922Z,37.80
2022-08-10T13:04:20.978Z,37.71
2022-08-10T13:06:45.749Z,37.89
2022-08-10T13:09:21.509Z,38.03
2022-08-10T13:12:36.257Z,38.10
2022-08-10T13:14:50.906Z,37.98
2022-08-10T13:17:38.958Z,37.84
2022-08-10T13:20:18.383Z,38.07
2022-08-10T13:22:52.497Z,37.81
2022-08-10T13:25:29.323Z,37.76
2022-08-10T13:28:36.087Z,37.48
2022-08-10T13:30:55.945Z,37.36
2022-08-10T13:34:40.999Z,37.42
2022-08-10T13:36:31.015Z,37.18
2022-08-10T13:39:01.952Z,37.20
2022-08-10T13:41:35.601Z,37.15
2022-08-10T13:44:06.968Z,37.09
2022-08-10T13:46:39.882Z,36.80
2022-08-10T13:49:10.653Z,36.76
2022-08-10T13:51:54.552Z,36.57
2022-08-10T13:54:36.154Z,36.66
2022-08-10T13:57:06.615Z,36.58
2022-08-10T14:00:34.193Z,36.56
2022-08-10T14:02:31.381Z,36.07
2022-08-10T14:05:01.821Z,36.07
2022-08-10T14:07:33.999Z,36.08
2022-08-10T14:10:07.394Z,36.04
2022-08-10T14:12:41.694Z,36.01
2022-08-10T14:15:14.980Z,35.81
2022-08-10T14:17:48.294Z,35.65
2022-08-10T14:20:21.769Z,35.64
2022-08-10T14:22:51.281Z,35.68
2022-08-10T14:25:20.702Z,36.02
2022-08-10T14:28:03.516Z,35.99
2022-08-10T14:30:35.130Z,34.47
2022-08-10T14:33:07.837Z,33.94
2022-08-10T14:36:20.315Z,33.37
2022-08-10T14:38:35.622Z,33.25
2022-08-10T14:41:14.463Z,33.13
2022-08-10T14:44:08.286Z,33.01
2022-08-10T14:46:45.296Z,33.04
2022-08-10T14:49:26.676Z,33.01
2022-08-10T14:52:02.688Z,33.10
2022-08-10T14:54:33.910Z,33.04
2022-08-10T14:57:11.230Z,32.80
2022-08-10T15:00:22.819Z,32.43
2022-08-10T15:02:39.038Z,32.60
2022-08-10T15:05:22.051Z,32.65
2022-08-10T15:07:59.383Z,32.57
2022-08-10T15:10:29.469Z,32.73
2022-08-10T15:12:59.576Z,32.75
2022-08-10T15:15:31.251Z,32.83
2022-08-10T15:18:26.412Z,32.67
2022-08-10T15:20:58.238Z,33.06
2022-08-10T15:23:32.286Z,32.76
2022-08-10T15:26:10.759Z,32.94
2022-08-10T15:29:23.655Z,33.00
2022-08-10T15:31:55.984Z,33.20
2022-08-10T15:34:44.319Z,33.18
2022-08-10T15:37:40.795Z,33.36
2022-08-10T15:40:25.131Z,33.53
2022-08-10T15:43:05.784Z,33.60
2022-08-10T15:46:14.591Z,33.70
2022-08-10T15:48:53.026Z,33.69
2022-08-10T15:51:33.786Z,33.91
2022-08-10T15:54:33.541Z,34.13
2022-08-10T15:57:08.146Z,34.05
2022-08-10T15:59:44.925Z,34.22
2022-08-10T16:02:18.740Z,34.39
2022-08-10T16:04:52.373Z,34.34
2022-08-10T16:07:46.271Z,34.59
2022-08-10T16:10:28.453Z,34.54
2022-08-10T16:13:01.738Z,34.38
2022-08-10T16:15:33.377Z,34.46
2022-08-10T16:18:08.452Z,34.61
2022-08-10T16:20:52.353Z,34.46
2022-08-10T16:23:28.991Z,34.55
2022-08-10T16:26:05.161Z,34.59
2022-08-10T16:28:48.315Z,34.57
2022-08-10T16:31:22.105Z,34.59
2022-08-10T16:33:55.301Z,34.60
2022-08-10T16:36:33.727Z,34.71
2022-08-10T16:39:04.568Z,34.93
2022-08-10T16:42:03.201Z,34.96
2022-08-10T16:44:31.488Z,34.97
2022-08-10T16:47:02.187Z,35.09
2022-08-10T16:49:37.141Z,35.22
2022-08-10T16:52:09.310Z,35.32
2022-08-10T16:54:41.604Z,35.38
2022-08-10T16:57:14.024Z,35.50
2022-08-10T16:59:45.165Z,35.33
2022-08-10T17:02:17.506Z,35.42
2022-08-10T17:04:50.040Z,35.33
2022-08-10T17:07:30.441Z,35.29
2022-08-10T17:10:07.450Z,35.35
2022-08-10T17:12:39.567Z,35.31
2022-08-10T17:15:12.812Z,35.32
2022-08-10T17:17:45.184Z,35.25
2022-08-10T17:20:30.197Z,35.22
2022-08-10T17:23:06.094Z,35.07
2022-08-10T17:25:45.695Z,35.04
2022-08-10T17:28:32.866Z,35.02
2022-08-10T17:31:42.218Z,35.10
2022-08-10T17:34:16.785Z,35.18
2022-08-10T17:36:59.993Z,35.21
2022-08-10T17:39:38.646Z,35.28
2022-08-10T17:42:12.327Z,35.36
2022-08-10T17:44:43.146Z,35.45
2022-08-10T17:47:13.207Z,35.55
2022-08-10T17:49:43.895Z,35.54
2022-08-10T17:52:21.082Z,35.65
2022-08-10T17:54:56.404Z,35.74
2022-08-10T17:57:27.683Z,35.78
2022-08-10T18:00:03.452Z,35.76
2022-08-10T18:02:36.737Z,35.95
2022-08-10T18:05:11.853Z,35.95
2022-08-10T18:07:57.780Z,35.95
2022-08-10T18:10:28.346Z,36.08
2022-08-10T18:12:59.487Z,36.13
2022-08-10T18:15:37.745Z,36.25
2022-08-10T18:18:16.394Z,36.25
2022-08-10T18:20:51.286Z,36.34
2022-08-10T18:23:27.455Z,36.42
2022-08-10T18:26:02.800Z,36.49
2022-08-10T18:28:36.470Z,36.59
2022-08-10T18:31:07.778Z,36.67
2022-08-10T18:33:47.149Z,36.80
2022-08-10T18:36:19.276Z,37.05
2022-08-10T18:38:53.081Z,36.96
2022-08-10T18:41:30.722Z,37.12
2022-08-10T18:44:12.123Z,37.24
2022-08-10T18:46:47.604Z,37.28
2022-08-10T18:49:26.547Z,37.35
2022-08-10T18:52:01.923Z,37.50
2022-08-10T18:54:44.505Z,37.58
2022-08-10T18:57:32.757Z,37.68
2022-08-10T19:00:12.480Z,37.63
2022-08-10T19:03:10.770Z,37.71
2022-08-10T19:06:16.481Z,37.65
2022-08-10T19:09:46.258Z,37.79
2022-08-10T19:12:29.977Z,37.76
2022-08-10T19:15:15.828Z,37.63
2022-08-10T19:18:05.593Z,37.80
2022-08-10T19:20:48.604Z,37.69
2022-08-10T19:23:37.847Z,37.60
2022-08-10T19:26:43.683Z,37.56
2022-08-10T19:30:09.187Z,37.58
2022-08-10T19:32:28.622Z,37.61
2022-08-10T19:35:07.501Z,37.60
2022-08-10T19:37:45.025Z,37.63
2022-08-10T19:40:44.070Z,37.73
2022-08-10T19:43:59.612Z,37.86
2022-08-10T19:46:19.510Z,37.73
2022-08-10T19:48:58.052Z,37.65
2022-08-10T19:51:34.127Z,37.84
2022-08-10T19:54:14.564Z,37.69
2022-08-10T19:57:01.054Z,37.78
2022-08-10T20:00:16.910Z,37.72
2022-08-10T20:02:32.451Z,37.86
2022-08-10T20:05:10.049Z,37.80
2022-08-10T20:07:50.007Z,37.89
2022-08-10T20:10:28.886Z,37.89
2022-08-10T20:13:07.758Z,37.79
2022-08-10T20:15:42.809Z,37.87
2022-08-10T20:18:21.671Z,37.90
2022-08-10T20:20:59.080Z,37.96
2022-08-10T20:23:33.810Z,37.94
2022-08-10T20:26:13.085Z,38.02
2022-08-10T20:28:47.176Z,38.16
2022-08-10T20:31:22.786Z,38.23
2022-08-10T20:34:01.371Z,38.14
2022-08-10T20:36:34.045Z,38.35
2022-08-10T20:39:13.732Z,38.35
2022-08-10T20:41:57.376Z,38.42
2022-08-10T20:44:43.977Z,38.46
2022-08-10T20:47:20.976Z,38.56
2022-08-10T20:50:01.857Z,38.67
2022-08-10T20:52:37.478Z,38.68
2022-08-10T20:55:11.766Z,38.79
2022-08-10T20:58:01.054Z,38.86
2022-08-10T21:00:47.033Z,38.85
2022-08-10T21:03:42.833Z,38.90
2022-08-10T21:06:45.875Z,38.98
2022-08-10T21:09:38.749Z,38.95
2022-08-10T21:12:51.040Z,38.82
2022-08-10T21:15:41.700Z,38.97
2022-08-10T21:18:30.781Z,39.09
2022-08-10T21:21:09.464Z,39.10
2022-08-10T21:23:51.872Z,39.09
2022-08-10T21:26:46.455Z,39.27
2022-08-10T21:29:37.857Z,39.22
2022-08-10T21:32:23.896Z,39.13
2022-08-10T21:35:08.376Z,39.22
2022-08-10T21:37:56.622Z,39.16
2022-08-10T21:41:18.747Z,39.11
2022-08-10T21:44:19.321Z,39.14
2022-08-10T21:47:27.193Z,39.24
2022-08-10T21:50:27.954Z,39.13
2022-08-10T21:53:43.538Z,39.04
2022-08-10T21:56:41.258Z,39.16
2022-08-10T21:59:42.014Z,39.31
2022-08-10T22:02:34.336Z,39.17
2022-08-10T22:05:23.420Z,39.41
2022-08-10T22:08:29.339Z,39.28
2022-08-10T22:11:20.146Z,39.37
2022-08-10T22:14:10.553Z,39.42
2022-08-10T22:17:59.843Z,39.34
2022-08-10T22:20:25.119Z,39.35
2022-08-10T22:23:30.713Z,39.40
2022-08-10T22:26:29.486Z,39.33
2022-08-10T22:29:24.847Z,39.51
2022-08-10T22:32:21.051Z,39.42
2022-08-10T22:35:34.962Z,39.48
2022-08-10T22:38:51.458Z,39.54
2022-08-10T22:41:57.205Z,39.78
2022-08-10T22:44:52.407Z,39.98
2022-08-10T22:47:42.357Z,39.96
2022-08-10T22:50:17.543Z,40.33
2022-08-10T22:52:57.293Z,40.49
2022-08-10T22:56:04.101Z,40.87
2022-08-10T22:58:40.287Z,41.04
2022-08-10T23:01:38.691Z,41.11
2022-08-10T23:04:16.748Z,41.25
2022-08-10T23:06:59.168Z,41.49
2022-08-10T23:09:29.293Z,41.72
2022-08-10T23:12:05.442Z,41.65
2022-08-10T23:14:38.349Z,42.03
2022-08-10T23:18:01.817Z,42.15
2022-08-10T23:20:27.034Z,42.58
2022-08-10T23:23:09.506Z,42.67
2022-08-10T23:26:25.846Z,42.76
2022-08-10T23:29:24.656Z,43.31
2022-08-10T23:36:29.523Z,44.10
2022-08-10T23:38:32.806Z,44.05
2022-08-10T23:41:09.508Z,44.20
2022-08-10T23:46:38.952Z,44.63
2022-08-10T23:49:11.043Z,44.72
2022-08-10T23:51:56.503Z,44.94
2022-08-10T23:54:28.257Z,45.49
2022-08-10T23:57:01.798Z,45.51
2022-08-10T23:59:35.936Z,45.71
